sensor_id;sensor_type;location;lat;lon;timestamp;P1;durP1;ratioP1;P2;durP2;ratioP2
81648;SDS011;71057;51.436;6.768;2024-03-07T00:00:19;50.85;;;23.38;;
81648;SDS011;71057;51.436;6.768;2024-03-07T00:02:50;53.40;;;23.63;;
81648;SDS011;71057;51.436;6.768;2024-03-07T00:05:17;59.53;;;24.80;;
81648;SDS011;71057;51.436;6.768;2024-03-07T00:07:44;49.35;;;22.85;;
81648;SDS011;71057;51.436;6.768;2024-03-07T00:10:09;48.30;;;23.98;;
81648;SDS011;71057;51.436;6.768;2024-03-07T00:12:35;44.63;;;23.42;;
81648;SDS011;71057;51.436;6.768;2024-03-07T00:15:03;52.05;;;23.55;;
81648;SDS011;71057;51.436;6.768;2024-03-07T00:17:30;53.38;;;24.92;;
81648;SDS011;71057;51.436;6.768;2024-03-07T00:19:56;49.53;;;24.25;;
81648;SDS011;71057;51.436;6.768;2024-03-07T00:22:21;49.13;;;22.90;;
81648;SDS011;71057;51.436;6.768;2024-03-07T00:24:47;53.70;;;24.98;;
81648;SDS011;71057;51.436;6.768;2024-03-07T00:27:13;59.33;;;27.27;;
81648;SDS011;71057;51.436;6.768;2024-03-07T00:29:42;45.05;;;24.60;;
81648;SDS011;71057;51.436;6.768;2024-03-07T00:32:07;54.95;;;26.52;;
81648;SDS011;71057;51.436;6.768;2024-03-07T00:34:33;47.90;;;23.15;;
81648;SDS011;71057;51.436;6.768;2024-03-07T00:36:59;51.83;;;24.27;;
81648;SDS011;71057;51.436;6.768;2024-03-07T00:39:25;47.65;;;24.88;;
81648;SDS011;71057;51.436;6.768;2024-03-07T00:41:51;48.45;;;23.05;;
81648;SDS011;71057;51.436;6.768;2024-03-07T00:44:16;59.85;;;26.27;;
81648;SDS011;71057;51.436;6.768;2024-03-07T00:46:42;55.22;;;26.40;;
81648;SDS011;71057;51.436;6.768;2024-03-07T00:49:07;56.72;;;26.27;;
81648;SDS011;71057;51.436;6.768;2024-03-07T00:51:32;55.72;;;22.88;;
81648;SDS011;71057;51.436;6.768;2024-03-07T00:53:58;58.67;;;25.55;;
81648;SDS011;71057;51.436;6.768;2024-03-07T00:56:23;55.55;;;27.38;;
81648;SDS011;71057;51.436;6.768;2024-03-07T00:58:49;54.13;;;24.98;;
81648;SDS011;71057;51.436;6.768;2024-03-07T01:01:16;51.58;;;25.77;;
81648;SDS011;71057;51.436;6.768;2024-03-07T01:03:42;51.47;;;24.15;;
81648;SDS011;71057;51.436;6.768;2024-03-07T01:06:08;43.28;;;22.98;;
81648;SDS011;71057;51.436;6.768;2024-03-07T01:08:34;50.15;;;23.33;;
81648;SDS011;71057;51.436;6.768;2024-03-07T01:11:01;56.58;;;26.17;;
81648;SDS011;71057;51.436;6.768;2024-03-07T01:13:34;53.75;;;24.95;;
81648;SDS011;71057;51.436;6.768;2024-03-07T01:15:59;50.05;;;22.98;;
81648;SDS011;71057;51.436;6.768;2024-03-07T01:18:24;56.07;;;22.90;;
81648;SDS011;71057;51.436;6.768;2024-03-07T01:20:50;52.57;;;24.77;;
81648;SDS011;71057;51.436;6.768;2024-03-07T01:23:15;60.70;;;27.37;;
81648;SDS011;71057;51.436;6.768;2024-03-07T01:25:40;51.73;;;24.77;;
81648;SDS011;71057;51.436;6.768;2024-03-07T01:28:05;53.40;;;25.07;;
81648;SDS011;71057;51.436;6.768;2024-03-07T01:30:31;54.75;;;24.42;;
81648;SDS011;71057;51.436;6.768;2024-03-07T01:32:56;58.67;;;26.50;;
81648;SDS011;71057;51.436;6.768;2024-03-07T01:35:22;50.43;;;23.93;;
81648;SDS011;71057;51.436;6.768;2024-03-07T01:37:47;55.53;;;26.45;;
81648;SDS011;71057;51.436;6.768;2024-03-07T01:40:12;64.17;;;25.87;;
81648;SDS011;71057;51.436;6.768;2024-03-07T01:42:39;48.40;;;23.25;;
81648;SDS011;71057;51.436;6.768;2024-03-07T01:45:04;50.10;;;23.70;;
81648;SDS011;71057;51.436;6.768;2024-03-07T01:47:30;57.70;;;25.70;;
81648;SDS011;71057;51.436;6.768;2024-03-07T01:49:55;52.90;;;25.52;;
81648;SDS011;71057;51.436;6.768;2024-03-07T01:52:21;58.00;;;26.25;;
81648;SDS011;71057;51.436;6.768;2024-03-07T01:54:47;53.03;;;26.17;;
81648;SDS011;71057;51.436;6.768;2024-03-07T01:57:13;49.63;;;23.90;;
81648;SDS011;71057;51.436;6.768;2024-03-07T01:59:40;57.65;;;26.83;;
81648;SDS011;71057;51.436;6.768;2024-03-07T02:02:06;55.20;;;25.70;;
81648;SDS011;71057;51.436;6.768;2024-03-07T02:04:32;52.33;;;25.35;;
81648;SDS011;71057;51.436;6.768;2024-03-07T02:06:58;54.63;;;25.33;;
81648;SDS011;71057;51.436;6.768;2024-03-07T02:09:23;56.22;;;27.25;;
81648;SDS011;71057;51.436;6.768;2024-03-07T02:11:48;53.40;;;25.87;;
81648;SDS011;71057;51.436;6.768;2024-03-07T02:14:14;52.92;;;26.38;;
81648;SDS011;71057;51.436;6.768;2024-03-07T02:16:40;51.05;;;24.92;;
81648;SDS011;71057;51.436;6.768;2024-03-07T02:19:05;53.08;;;23.33;;
81648;SDS011;71057;51.436;6.768;2024-03-07T02:21:32;47.50;;;23.08;;
81648;SDS011;71057;51.436;6.768;2024-03-07T02:23:58;50.10;;;25.43;;
81648;SDS011;71057;51.436;6.768;2024-03-07T02:26:23;48.72;;;24.90;;
81648;SDS011;71057;51.436;6.768;2024-03-07T02:28:48;52.07;;;25.73;;
81648;SDS011;71057;51.436;6.768;2024-03-07T02:31:14;48.55;;;25.60;;
81648;SDS011;71057;51.436;6.768;2024-03-07T02:33:39;52.93;;;23.07;;
81648;SDS011;71057;51.436;6.768;2024-03-07T02:36:05;49.42;;;25.00;;
81648;SDS011;71057;51.436;6.768;2024-03-07T02:38:30;45.50;;;21.42;;
81648;SDS011;71057;51.436;6.768;2024-03-07T02:40:56;56.05;;;25.20;;
81648;SDS011;71057;51.436;6.768;2024-03-07T02:43:23;51.75;;;26.35;;
81648;SDS011;71057;51.436;6.768;2024-03-07T02:45:48;51.28;;;25.45;;
81648;SDS011;71057;51.436;6.768;2024-03-07T02:48:14;48.72;;;23.05;;
81648;SDS011;71057;51.436;6.768;2024-03-07T02:50:40;66.75;;;30.27;;
81648;SDS011;71057;51.436;6.768;2024-03-07T02:53:05;51.40;;;24.43;;
81648;SDS011;71057;51.436;6.768;2024-03-07T02:55:31;55.63;;;24.60;;
81648;SDS011;71057;51.436;6.768;2024-03-07T02:57:57;52.40;;;25.02;;
81648;SDS011;71057;51.436;6.768;2024-03-07T03:00:24;50.10;;;23.92;;
81648;SDS011;71057;51.436;6.768;2024-03-07T03:02:54;46.72;;;24.10;;
81648;SDS011;71057;51.436;6.768;2024-03-07T03:05:20;49.17;;;23.45;;
81648;SDS011;71057;51.436;6.768;2024-03-07T03:07:47;50.30;;;25.45;;
81648;SDS011;71057;51.436;6.768;2024-03-07T03:10:22;50.53;;;24.55;;
81648;SDS011;71057;51.436;6.768;2024-03-07T03:12:53;55.13;;;26.60;;
81648;SDS011;71057;51.436;6.768;2024-03-07T03:15:20;49.38;;;24.17;;
81648;SDS011;71057;51.436;6.768;2024-03-07T03:17:46;47.67;;;25.65;;
81648;SDS011;71057;51.436;6.768;2024-03-07T03:20:13;49.17;;;23.77;;
81648;SDS011;71057;51.436;6.768;2024-03-07T03:22:53;53.72;;;28.02;;
81648;SDS011;71057;51.436;6.768;2024-03-07T03:25:22;66.43;;;28.15;;
81648;SDS011;71057;51.436;6.768;2024-03-07T03:27:48;48.22;;;23.40;;
81648;SDS011;71057;51.436;6.768;2024-03-07T03:30:14;48.67;;;22.45;;
81648;SDS011;71057;51.436;6.768;2024-03-07T03:32:39;51.47;;;24.60;;
81648;SDS011;71057;51.436;6.768;2024-03-07T03:35:06;54.88;;;24.45;;
81648;SDS011;71057;51.436;6.768;2024-03-07T03:37:32;56.22;;;27.10;;
81648;SDS011;71057;51.436;6.768;2024-03-07T03:39:58;56.13;;;26.00;;
81648;SDS011;71057;51.436;6.768;2024-03-07T03:42:23;47.40;;;24.60;;
81648;SDS011;71057;51.436;6.768;2024-03-07T03:44:49;59.75;;;29.92;;
81648;SDS011;71057;51.436;6.768;2024-03-07T03:47:14;51.55;;;23.42;;
81648;SDS011;71057;51.436;6.768;2024-03-07T03:49:39;55.78;;;25.95;;
81648;SDS011;71057;51.436;6.768;2024-03-07T03:52:05;50.77;;;25.17;;
81648;SDS011;71057;51.436;6.768;2024-03-07T03:54:30;47.97;;;24.33;;
81648;SDS011;71057;51.436;6.768;2024-03-07T03:56:55;62.17;;;26.97;;
81648;SDS011;71057;51.436;6.768;2024-03-07T03:59:21;52.40;;;26.63;;
81648;SDS011;71057;51.436;6.768;2024-03-07T04:01:46;48.03;;;24.03;;
81648;SDS011;71057;51.436;6.768;2024-03-07T04:04:13;78.00;;;27.95;;
81648;SDS011;71057;51.436;6.768;2024-03-07T04:06:38;50.20;;;25.52;;
81648;SDS011;71057;51.436;6.768;2024-03-07T04:09:04;49.97;;;27.40;;
81648;SDS011;71057;51.436;6.768;2024-03-07T04:11:29;54.17;;;26.15;;
81648;SDS011;71057;51.436;6.768;2024-03-07T04:13:55;45.53;;;24.00;;
81648;SDS011;71057;51.436;6.768;2024-03-07T04:16:20;51.65;;;23.33;;
81648;SDS011;71057;51.436;6.768;2024-03-07T04:18:46;56.00;;;25.90;;
81648;SDS011;71057;51.436;6.768;2024-03-07T04:21:11;47.85;;;25.55;;
81648;SDS011;71057;51.436;6.768;2024-03-07T04:23:39;55.83;;;25.55;;
81648;SDS011;71057;51.436;6.768;2024-03-07T04:26:05;57.97;;;26.50;;
81648;SDS011;71057;51.436;6.768;2024-03-07T04:28:30;52.50;;;24.80;;
81648;SDS011;71057;51.436;6.768;2024-03-07T04:30:56;51.30;;;22.75;;
81648;SDS011;71057;51.436;6.768;2024-03-07T04:33:21;55.50;;;26.08;;
81648;SDS011;71057;51.436;6.768;2024-03-07T04:35:46;45.10;;;22.40;;
81648;SDS011;71057;51.436;6.768;2024-03-07T04:38:12;48.50;;;24.37;;
81648;SDS011;71057;51.436;6.768;2024-03-07T04:40:40;52.88;;;23.85;;
81648;SDS011;71057;51.436;6.768;2024-03-07T04:43:06;51.97;;;22.92;;
81648;SDS011;71057;51.436;6.768;2024-03-07T04:45:32;63.03;;;28.02;;
81648;SDS011;71057;51.436;6.768;2024-03-07T04:47:58;49.05;;;25.25;;
81648;SDS011;71057;51.436;6.768;2024-03-07T04:50:24;55.00;;;25.67;;
81648;SDS011;71057;51.436;6.768;2024-03-07T04:52:49;55.92;;;24.42;;
81648;SDS011;71057;51.436;6.768;2024-03-07T04:55:15;50.25;;;23.02;;
81648;SDS011;71057;51.436;6.768;2024-03-07T04:57:40;48.55;;;24.40;;
81648;SDS011;71057;51.436;6.768;2024-03-07T05:00:10;56.78;;;26.83;;
81648;SDS011;71057;51.436;6.768;2024-03-07T05:02:42;52.97;;;25.35;;
81648;SDS011;71057;51.436;6.768;2024-03-07T05:05:08;52.25;;;24.80;;
81648;SDS011;71057;51.436;6.768;2024-03-07T05:07:33;50.37;;;23.20;;
81648;SDS011;71057;51.436;6.768;2024-03-07T05:10:00;46.55;;;23.38;;
81648;SDS011;71057;51.436;6.768;2024-03-07T05:12:26;48.13;;;23.23;;
81648;SDS011;71057;51.436;6.768;2024-03-07T05:14:51;53.43;;;23.90;;
81648;SDS011;71057;51.436;6.768;2024-03-07T05:17:17;50.23;;;23.97;;
81648;SDS011;71057;51.436;6.768;2024-03-07T05:19:44;50.72;;;23.95;;
81648;SDS011;71057;51.436;6.768;2024-03-07T05:22:10;51.70;;;23.63;;
81648;SDS011;71057;51.436;6.768;2024-03-07T05:24:40;51.17;;;23.60;;
81648;SDS011;71057;51.436;6.768;2024-03-07T05:27:07;44.38;;;23.65;;
81648;SDS011;71057;51.436;6.768;2024-03-07T05:29:33;54.13;;;23.55;;
81648;SDS011;71057;51.436;6.768;2024-03-07T05:32:17;52.60;;;24.93;;
81648;SDS011;71057;51.436;6.768;2024-03-07T05:34:52;53.95;;;25.75;;
81648;SDS011;71057;51.436;6.768;2024-03-07T05:37:21;51.88;;;23.83;;
81648;SDS011;71057;51.436;6.768;2024-03-07T05:39:50;40.42;;;21.52;;
81648;SDS011;71057;51.436;6.768;2024-03-07T05:42:15;44.63;;;22.15;;
81648;SDS011;71057;51.436;6.768;2024-03-07T05:44:41;45.13;;;23.13;;
81648;SDS011;71057;51.436;6.768;2024-03-07T05:47:07;48.85;;;23.45;;
81648;SDS011;71057;51.436;6.768;2024-03-07T05:49:34;48.30;;;24.08;;
81648;SDS011;71057;51.436;6.768;2024-03-07T05:51:59;50.72;;;25.60;;
81648;SDS011;71057;51.436;6.768;2024-03-07T05:54:25;45.38;;;23.23;;
81648;SDS011;71057;51.436;6.768;2024-03-07T05:56:50;49.38;;;25.23;;
81648;SDS011;71057;51.436;6.768;2024-03-07T05:59:15;48.93;;;24.70;;
81648;SDS011;71057;51.436;6.768;2024-03-07T06:01:42;49.92;;;24.80;;
81648;SDS011;71057;51.436;6.768;2024-03-07T06:04:08;47.85;;;24.23;;
81648;SDS011;71057;51.436;6.768;2024-03-07T06:06:35;48.22;;;21.63;;
81648;SDS011;71057;51.436;6.768;2024-03-07T06:09:02;46.78;;;23.38;;
81648;SDS011;71057;51.436;6.768;2024-03-07T06:11:32;47.28;;;23.17;;
81648;SDS011;71057;51.436;6.768;2024-03-07T06:14:04;43.72;;;22.15;;
81648;SDS011;71057;51.436;6.768;2024-03-07T06:16:37;45.42;;;23.75;;
81648;SDS011;71057;51.436;6.768;2024-03-07T06:19:03;50.10;;;23.80;;
81648;SDS011;71057;51.436;6.768;2024-03-07T06:21:32;46.28;;;20.92;;
81648;SDS011;71057;51.436;6.768;2024-03-07T06:23:58;50.13;;;22.58;;
81648;SDS011;71057;51.436;6.768;2024-03-07T06:26:31;42.80;;;20.98;;
81648;SDS011;71057;51.436;6.768;2024-03-07T06:29:06;43.05;;;22.40;;
81648;SDS011;71057;51.436;6.768;2024-03-07T06:31:32;50.17;;;25.10;;
81648;SDS011;71057;51.436;6.768;2024-03-07T06:33:59;40.17;;;21.33;;
81648;SDS011;71057;51.436;6.768;2024-03-07T06:36:25;43.60;;;22.67;;
81648;SDS011;71057;51.436;6.768;2024-03-07T06:38:50;51.57;;;24.60;;
81648;SDS011;71057;51.436;6.768;2024-03-07T06:41:16;43.83;;;22.85;;
81648;SDS011;71057;51.436;6.768;2024-03-07T06:43:43;46.83;;;23.08;;
81648;SDS011;71057;51.436;6.768;2024-03-07T06:46:09;43.50;;;21.92;;
81648;SDS011;71057;51.436;6.768;2024-03-07T06:48:35;46.13;;;22.52;;
81648;SDS011;71057;51.436;6.768;2024-03-07T06:51:00;48.53;;;25.33;;
81648;SDS011;71057;51.436;6.768;2024-03-07T06:53:25;41.85;;;22.35;;
81648;SDS011;71057;51.436;6.768;2024-03-07T06:55:51;43.88;;;22.98;;
81648;SDS011;71057;51.436;6.768;2024-03-07T06:58:18;40.15;;;20.90;;
81648;SDS011;71057;51.436;6.768;2024-03-07T07:00:47;45.42;;;22.13;;
81648;SDS011;71057;51.436;6.768;2024-03-07T07:03:12;42.57;;;22.27;;
81648;SDS011;71057;51.436;6.768;2024-03-07T07:05:39;44.83;;;21.73;;
81648;SDS011;71057;51.436;6.768;2024-03-07T07:08:06;40.60;;;22.17;;
81648;SDS011;71057;51.436;6.768;2024-03-07T07:10:31;43.45;;;23.42;;
81648;SDS011;71057;51.436;6.768;2024-03-07T07:12:57;37.88;;;21.83;;
81648;SDS011;71057;51.436;6.768;2024-03-07T07:15:22;46.03;;;22.80;;
81648;SDS011;71057;51.436;6.768;2024-03-07T07:17:48;37.13;;;20.00;;
81648;SDS011;71057;51.436;6.768;2024-03-07T07:20:15;42.17;;;21.38;;
81648;SDS011;71057;51.436;6.768;2024-03-07T07:22:41;41.13;;;23.23;;
81648;SDS011;71057;51.436;6.768;2024-03-07T07:25:07;43.85;;;21.83;;
81648;SDS011;71057;51.436;6.768;2024-03-07T07:27:40;37.35;;;21.58;;
81648;SDS011;71057;51.436;6.768;2024-03-07T07:30:07;38.75;;;22.13;;
81648;SDS011;71057;51.436;6.768;2024-03-07T07:32:32;42.28;;;22.15;;
81648;SDS011;71057;51.436;6.768;2024-03-07T07:34:58;41.20;;;22.17;;
81648;SDS011;71057;51.436;6.768;2024-03-07T07:37:23;37.93;;;20.73;;
81648;SDS011;71057;51.436;6.768;2024-03-07T07:39:48;40.47;;;21.97;;
81648;SDS011;71057;51.436;6.768;2024-03-07T07:42:14;38.33;;;20.90;;
81648;SDS011;71057;51.436;6.768;2024-03-07T07:44:39;36.97;;;21.30;;
81648;SDS011;71057;51.436;6.768;2024-03-07T07:47:05;39.75;;;22.58;;
81648;SDS011;71057;51.436;6.768;2024-03-07T07:49:31;36.22;;;18.73;;
81648;SDS011;71057;51.436;6.768;2024-03-07T07:51:56;38.97;;;20.42;;
81648;SDS011;71057;51.436;6.768;2024-03-07T07:54:21;39.55;;;23.52;;
81648;SDS011;71057;51.436;6.768;2024-03-07T07:56:47;39.80;;;22.00;;
81648;SDS011;71057;51.436;6.768;2024-03-07T07:59:16;36.75;;;20.35;;
81648;SDS011;71057;51.436;6.768;2024-03-07T08:01:41;34.63;;;19.00;;
81648;SDS011;71057;51.436;6.768;2024-03-07T08:04:06;35.43;;;20.13;;
81648;SDS011;71057;51.436;6.768;2024-03-07T08:06:33;32.38;;;18.75;;
81648;SDS011;71057;51.436;6.768;2024-03-07T08:08:58;33.73;;;19.97;;
81648;SDS011;71057;51.436;6.768;2024-03-07T08:11:24;35.63;;;21.40;;
81648;SDS011;71057;51.436;6.768;2024-03-07T08:13:49;36.75;;;19.77;;
81648;SDS011;71057;51.436;6.768;2024-03-07T08:16:15;38.85;;;20.98;;
81648;SDS011;71057;51.436;6.768;2024-03-07T08:18:41;35.88;;;21.02;;
81648;SDS011;71057;51.436;6.768;2024-03-07T08:21:06;34.80;;;21.08;;
81648;SDS011;71057;51.436;6.768;2024-03-07T08:23:35;32.88;;;19.83;;
81648;SDS011;71057;51.436;6.768;2024-03-07T08:26:01;30.00;;;18.35;;
81648;SDS011;71057;51.436;6.768;2024-03-07T08:28:26;35.77;;;19.97;;
81648;SDS011;71057;51.436;6.768;2024-03-07T08:30:51;33.92;;;20.42;;
81648;SDS011;71057;51.436;6.768;2024-03-07T08:33:17;33.70;;;19.00;;
81648;SDS011;71057;51.436;6.768;2024-03-07T08:35:46;36.05;;;19.42;;
81648;SDS011;71057;51.436;6.768;2024-03-07T08:38:12;37.55;;;19.50;;
81648;SDS011;71057;51.436;6.768;2024-03-07T08:40:37;36.03;;;18.90;;
81648;SDS011;71057;51.436;6.768;2024-03-07T08:43:02;28.73;;;16.63;;
81648;SDS011;71057;51.436;6.768;2024-03-07T08:45:28;31.30;;;19.00;;
81648;SDS011;71057;51.436;6.768;2024-03-07T08:47:54;30.70;;;18.45;;
81648;SDS011;71057;51.436;6.768;2024-03-07T08:50:21;30.75;;;19.13;;
81648;SDS011;71057;51.436;6.768;2024-03-07T08:52:48;29.48;;;16.85;;
81648;SDS011;71057;51.436;6.768;2024-03-07T08:55:15;28.23;;;16.02;;
81648;SDS011;71057;51.436;6.768;2024-03-07T08:57:42;28.67;;;16.50;;
81648;SDS011;71057;51.436;6.768;2024-03-07T09:00:09;26.55;;;14.88;;
81648;SDS011;71057;51.436;6.768;2024-03-07T09:02:36;28.58;;;16.45;;
81648;SDS011;71057;51.436;6.768;2024-03-07T09:05:03;29.52;;;17.38;;
81648;SDS011;71057;51.436;6.768;2024-03-07T09:07:29;28.90;;;16.08;;
81648;SDS011;71057;51.436;6.768;2024-03-07T09:09:54;27.42;;;14.60;;
81648;SDS011;71057;51.436;6.768;2024-03-07T09:12:20;27.23;;;14.55;;
81648;SDS011;71057;51.436;6.768;2024-03-07T09:14:45;26.90;;;14.27;;
81648;SDS011;71057;51.436;6.768;2024-03-07T09:17:10;25.20;;;14.77;;
81648;SDS011;71057;51.436;6.768;2024-03-07T09:19:37;25.27;;;13.77;;
81648;SDS011;71057;51.436;6.768;2024-03-07T09:22:02;20.70;;;12.02;;
81648;SDS011;71057;51.436;6.768;2024-03-07T09:24:30;20.35;;;12.70;;
81648;SDS011;71057;51.436;6.768;2024-03-07T09:26:55;23.35;;;12.45;;
81648;SDS011;71057;51.436;6.768;2024-03-07T09:29:22;20.27;;;13.05;;
81648;SDS011;71057;51.436;6.768;2024-03-07T09:31:51;21.10;;;12.35;;
81648;SDS011;71057;51.436;6.768;2024-03-07T09:34:17;19.95;;;11.35;;
81648;SDS011;71057;51.436;6.768;2024-03-07T09:36:43;22.80;;;13.05;;
81648;SDS011;71057;51.436;6.768;2024-03-07T09:39:09;20.90;;;12.50;;
81648;SDS011;71057;51.436;6.768;2024-03-07T09:41:34;19.98;;;11.73;;
81648;SDS011;71057;51.436;6.768;2024-03-07T09:44:00;20.25;;;10.88;;
81648;SDS011;71057;51.436;6.768;2024-03-07T09:46:26;19.75;;;11.48;;
81648;SDS011;71057;51.436;6.768;2024-03-07T09:48:53;21.15;;;11.40;;
81648;SDS011;71057;51.436;6.768;2024-03-07T09:51:22;20.70;;;11.95;;
81648;SDS011;71057;51.436;6.768;2024-03-07T09:53:51;19.92;;;11.90;;
81648;SDS011;71057;51.436;6.768;2024-03-07T09:56:20;21.98;;;12.20;;
81648;SDS011;71057;51.436;6.768;2024-03-07T09:58:49;20.27;;;12.63;;
81648;SDS011;71057;51.436;6.768;2024-03-07T10:01:20;20.20;;;12.43;;
81648;SDS011;71057;51.436;6.768;2024-03-07T10:03:46;19.02;;;11.60;;
81648;SDS011;71057;51.436;6.768;2024-03-07T10:06:12;24.42;;;13.15;;
81648;SDS011;71057;51.436;6.768;2024-03-07T10:08:38;21.40;;;13.07;;
81648;SDS011;71057;51.436;6.768;2024-03-07T10:11:05;20.33;;;12.27;;
81648;SDS011;71057;51.436;6.768;2024-03-07T10:13:31;21.60;;;12.38;;
81648;SDS011;71057;51.436;6.768;2024-03-07T10:15:56;19.87;;;12.30;;
81648;SDS011;71057;51.436;6.768;2024-03-07T10:18:25;19.88;;;13.18;;
81648;SDS011;71057;51.436;6.768;2024-03-07T10:20:53;21.45;;;13.27;;
81648;SDS011;71057;51.436;6.768;2024-03-07T10:25:46;20.52;;;13.05;;
81648;SDS011;71057;51.436;6.768;2024-03-07T10:28:11;19.77;;;12.23;;
81648;SDS011;71057;51.436;6.768;2024-03-07T10:30:40;18.90;;;11.27;;
81648;SDS011;71057;51.436;6.768;2024-03-07T10:33:06;20.08;;;12.20;;
81648;SDS011;71057;51.436;6.768;2024-03-07T10:35:32;18.45;;;10.57;;
81648;SDS011;71057;51.436;6.768;2024-03-07T10:37:57;18.63;;;11.87;;
81648;SDS011;71057;51.436;6.768;2024-03-07T10:40:31;18.75;;;10.02;;
81648;SDS011;71057;51.436;6.768;2024-03-07T10:42:57;18.92;;;11.82;;
81648;SDS011;71057;51.436;6.768;2024-03-07T10:45:22;19.50;;;12.45;;
81648;SDS011;71057;51.436;6.768;2024-03-07T10:47:55;16.25;;;10.18;;
81648;SDS011;71057;51.436;6.768;2024-03-07T10:56:53;20.65;;;12.00;;
81648;SDS011;71057;51.436;6.768;2024-03-07T10:59:15;18.60;;;11.23;;
81648;SDS011;71057;51.436;6.768;2024-03-07T11:01:54;16.02;;;10.40;;
81648;SDS011;71057;51.436;6.768;2024-03-07T11:04:37;18.30;;;11.35;;
81648;SDS011;71057;51.436;6.768;2024-03-07T11:07:03;19.48;;;11.63;;
81648;SDS011;71057;51.436;6.768;2024-03-07T11:09:28;17.75;;;10.48;;
81648;SDS011;71057;51.436;6.768;2024-03-07T11:11:58;17.65;;;10.65;;
81648;SDS011;71057;51.436;6.768;2024-03-07T11:14:25;18.40;;;11.07;;
81648;SDS011;71057;51.436;6.768;2024-03-07T11:16:51;19.85;;;12.02;;
81648;SDS011;71057;51.436;6.768;2024-03-07T11:19:35;20.95;;;12.40;;
81648;SDS011;71057;51.436;6.768;2024-03-07T11:22:04;17.73;;;10.05;;
81648;SDS011;71057;51.436;6.768;2024-03-07T11:24:40;17.02;;;11.60;;
81648;SDS011;71057;51.436;6.768;2024-03-07T11:27:09;21.05;;;11.30;;
81648;SDS011;71057;51.436;6.768;2024-03-07T11:29:47;17.35;;;10.90;;
81648;SDS011;71057;51.436;6.768;2024-03-07T11:32:17;20.30;;;12.60;;
81648;SDS011;71057;51.436;6.768;2024-03-07T11:34:46;19.08;;;10.98;;
81648;SDS011;71057;51.436;6.768;2024-03-07T11:37:18;16.40;;;10.98;;
81648;SDS011;71057;51.436;6.768;2024-03-07T11:40:14;17.02;;;11.00;;
81648;SDS011;71057;51.436;6.768;2024-03-07T11:42:58;19.33;;;11.63;;
81648;SDS011;71057;51.436;6.768;2024-03-07T11:45:29;16.73;;;10.80;;
81648;SDS011;71057;51.436;6.768;2024-03-07T11:47:58;19.67;;;10.80;;
81648;SDS011;71057;51.436;6.768;2024-03-07T11:50:34;17.17;;;10.88;;
81648;SDS011;71057;51.436;6.768;2024-03-07T11:53:03;19.13;;;11.23;;
81648;SDS011;71057;51.436;6.768;2024-03-07T11:55:31;17.75;;;10.80;;
81648;SDS011;71057;51.436;6.768;2024-03-07T11:58:19;18.75;;;10.82;;
81648;SDS011;71057;51.436;6.768;2024-03-07T12:00:49;17.45;;;11.05;;
81648;SDS011;71057;51.436;6.768;2024-03-07T12:03:16;19.50;;;11.98;;
81648;SDS011;71057;51.436;6.768;2024-03-07T12:05:46;18.77;;;10.85;;
81648;SDS011;71057;51.436;6.768;2024-03-07T12:08:16;16.23;;;10.93;;
81648;SDS011;71057;51.436;6.768;2024-03-07T12:10:42;15.68;;;10.15;;
81648;SDS011;71057;51.436;6.768;2024-03-07T12:13:11;15.45;;;10.77;;
81648;SDS011;71057;51.436;6.768;2024-03-07T12:15:40;19.05;;;11.52;;
81648;SDS011;71057;51.436;6.768;2024-03-07T12:18:07;17.70;;;10.82;;
81648;SDS011;71057;51.436;6.768;2024-03-07T12:20:37;16.67;;;10.80;;
81648;SDS011;71057;51.436;6.768;2024-03-07T12:23:04;16.77;;;11.15;;
81648;SDS011;71057;51.436;6.768;2024-03-07T12:25:33;17.30;;;11.70;;
81648;SDS011;71057;51.436;6.768;2024-03-07T12:28:06;17.33;;;11.95;;
81648;SDS011;71057;51.436;6.768;2024-03-07T12:30:37;18.80;;;10.80;;
81648;SDS011;71057;51.436;6.768;2024-03-07T12:33:13;20.27;;;12.35;;
81648;SDS011;71057;51.436;6.768;2024-03-07T12:35:47;15.95;;;11.35;;
81648;SDS011;71057;51.436;6.768;2024-03-07T12:38:15;20.10;;;12.55;;
81648;SDS011;71057;51.436;6.768;2024-03-07T12:40:41;18.30;;;12.30;;
81648;SDS011;71057;51.436;6.768;2024-03-07T12:43:17;17.35;;;12.02;;
81648;SDS011;71057;51.436;6.768;2024-03-07T12:45:45;17.15;;;11.32;;
81648;SDS011;71057;51.436;6.768;2024-03-07T12:48:13;16.10;;;11.30;;
81648;SDS011;71057;51.436;6.768;2024-03-07T12:50:39;19.48;;;12.00;;
81648;SDS011;71057;51.436;6.768;2024-03-07T12:53:05;18.17;;;11.27;;
81648;SDS011;71057;51.436;6.768;2024-03-07T12:55:36;16.13;;;11.23;;
81648;SDS011;71057;51.436;6.768;2024-03-07T12:58:07;17.75;;;11.82;;
81648;SDS011;71057;51.436;6.768;2024-03-07T13:00:34;17.40;;;12.45;;
81648;SDS011;71057;51.436;6.768;2024-03-07T13:03:00;16.70;;;11.23;;
81648;SDS011;71057;51.436;6.768;2024-03-07T13:05:25;18.05;;;11.35;;
81648;SDS011;71057;51.436;6.768;2024-03-07T13:07:51;15.93;;;11.68;;
81648;SDS011;71057;51.436;6.768;2024-03-07T13:10:17;17.92;;;10.82;;
81648;SDS011;71057;51.436;6.768;2024-03-07T13:12:46;17.60;;;11.65;;
81648;SDS011;71057;51.436;6.768;2024-03-07T13:15:14;19.23;;;12.30;;
81648;SDS011;71057;51.436;6.768;2024-03-07T13:17:40;15.77;;;10.80;;
81648;SDS011;71057;51.436;6.768;2024-03-07T13:20:08;17.98;;;13.25;;
81648;SDS011;71057;51.436;6.768;2024-03-07T13:22:43;19.35;;;12.02;;
81648;SDS011;71057;51.436;6.768;2024-03-07T13:25:20;16.85;;;11.43;;
81648;SDS011;71057;51.436;6.768;2024-03-07T13:27:51;19.70;;;13.98;;
81648;SDS011;71057;51.436;6.768;2024-03-07T13:30:21;19.48;;;13.32;;
81648;SDS011;71057;51.436;6.768;2024-03-07T13:32:49;18.67;;;12.05;;
81648;SDS011;71057;51.436;6.768;2024-03-07T13:35:15;19.17;;;11.52;;
81648;SDS011;71057;51.436;6.768;2024-03-07T13:37:40;17.65;;;12.15;;
81648;SDS011;71057;51.436;6.768;2024-03-07T13:40:06;17.77;;;11.13;;
81648;SDS011;71057;51.436;6.768;2024-03-07T13:42:47;17.27;;;11.98;;
81648;SDS011;71057;51.436;6.768;2024-03-07T13:45:13;18.23;;;12.85;;
81648;SDS011;71057;51.436;6.768;2024-03-07T13:47:38;18.13;;;12.20;;
81648;SDS011;71057;51.436;6.768;2024-03-07T13:50:04;14.77;;;11.47;;
81648;SDS011;71057;51.436;6.768;2024-03-07T13:52:36;15.93;;;10.70;;
81648;SDS011;71057;51.436;6.768;2024-03-07T13:55:08;15.57;;;11.45;;
81648;SDS011;71057;51.436;6.768;2024-03-07T14:00:24;16.17;;;11.48;;
81648;SDS011;71057;51.436;6.768;2024-03-07T14:06:08;14.57;;;10.25;;
81648;SDS011;71057;51.436;6.768;2024-03-07T14:08:54;14.68;;;9.98;;
81648;SDS011;71057;51.436;6.768;2024-03-07T14:12:02;13.63;;;9.77;;
81648;SDS011;71057;51.436;6.768;2024-03-07T14:14:41;15.00;;;9.27;;
81648;SDS011;71057;51.436;6.768;2024-03-07T14:29:26;12.52;;;7.85;;
81648;SDS011;71057;51.436;6.768;2024-03-07T14:31:56;12.32;;;7.78;;
81648;SDS011;71057;51.436;6.768;2024-03-07T14:37:40;12.13;;;7.32;;
81648;SDS011;71057;51.436;6.768;2024-03-07T14:40:15;9.65;;;7.28;;
81648;SDS011;71057;51.436;6.768;2024-03-07T14:42:44;10.98;;;7.00;;
81648;SDS011;71057;51.436;6.768;2024-03-07T14:45:12;10.52;;;7.05;;
81648;SDS011;71057;51.436;6.768;2024-03-07T14:47:44;10.63;;;6.95;;
81648;SDS011;71057;51.436;6.768;2024-03-07T14:50:10;12.73;;;7.93;;
81648;SDS011;71057;51.436;6.768;2024-03-07T14:52:36;12.30;;;7.65;;